Time;durP1;ratioP1;P1;durP2;ratioP2;P2;SDS_P1;SDS_P2;PMS_P1;PMS_P2;Temp;Humidity;BMP_temperature;BMP_pressure;BME280_temperature;BME280_humidity;BME280_pressure;Samples;Min_cycle;Max_cycle;Signal;HPM_P1;HPM_P2
2022/12/27 00:09:00;;;;;;;3.05;0.60;;;;;;;5.28;100.00;101341.47;20706592;28;20049;-74
2022/12/27 00:19:02;;;;;;;5.47;1.10;;;;;;;5.11;100.00;101348.03;20704467;28;20054;-73
2022/12/27 00:29:03;;;;;;;5.30;1.08;;;;;;;4.78;100.00;101349.00;20720687;28;20128;-73
2022/12/27 00:39:04;;;;;;;3.17;1.00;;;;;;;4.68;100.00;101372.13;20788200;28;20084;-74
2022/12/27 00:49:05;;;;;;;4.88;1.15;;;;;;;4.38;100.00;101379.19;20786242;28;20387;-75
2022/12/27 00:59:07;;;;;;;4.80;1.17;;;;;;;4.35;100.00;101384.28;20786740;28;20053;-74
2022/12/27 01:09:08;;;;;;;7.72;1.20;;;;;;;4.28;100.00;101392.75;20712829;28;20053;-74
2022/12/27 01:19:09;;;;;;;6.90;1.60;;;;;;;4.19;100.00;101397.72;20700397;28;20201;-74
2022/12/27 01:29:11;;;;;;;12.52;1.83;;;;;;;4.18;100.00;101411.50;20702843;28;20054;-73
2022/12/27 01:39:12;;;;;;;3.78;1.42;;;;;;;4.26;100.00;101419.47;20777305;28;20050;-74
2022/12/27 01:49:13;;;;;;;7.22;1.30;;;;;;;4.31;100.00;101436.03;20782460;28;20518;-74
2022/12/27 01:59:14;;;;;;;8.75;1.67;;;;;;;4.25;100.00;101428.97;20781399;28;20109;-75
2022/12/27 02:09:16;;;;;;;9.25;1.20;;;;;;;4.29;100.00;101430.81;20706861;28;20054;-74
2022/12/27 02:19:17;;;;;;;5.07;1.30;;;;;;;4.27;100.00;101429.91;20691818;28;20055;-76
2022/12/27 02:29:18;;;;;;;6.70;1.45;;;;;;;4.22;100.00;101434.09;20697349;28;20418;-74
2022/12/27 02:39:20;;;;;;;6.05;1.48;;;;;;;4.19;100.00;101434.00;20774410;28;20072;-74
2022/12/27 03:03:19;;;;;;;10.77;1.40;;;;;;;4.25;100.00;101426.38;20778624;28;20046;-74
2022/12/27 03:51:33;;;;;;;5.10;1.65;;;;;;;4.24;100.00;101445.34;20693825;28;20053;-73
2022/12/27 04:01:35;;;;;;;7.72;2.10;;;;;;;4.19;100.00;101448.66;20709921;28;20049;-73
2022/12/27 05:03:20;;;;;;;9.82;3.28;;;;;;;3.54;100.00;101451.13;20732707;28;20057;-73
2022/12/27 05:34:05;;;;;;;11.20;2.50;;;;;;;3.22;100.00;101474.34;20751650;28;20041;-73
2022/12/27 05:44:07;;;;;;;9.43;2.90;;;;;;;3.04;100.00;101468.59;20701874;28;20467;-73
2022/12/27 05:54:08;;;;;;;8.93;3.05;;;;;;;2.86;100.00;101483.50;20723577;28;20058;-72
2022/12/27 06:04:10;;;;;;;9.38;2.95;;;;;;;2.78;100.00;101489.31;20749464;28;20069;-71
2022/12/27 06:14:11;;;;;;;14.05;3.22;;;;;;;2.71;100.00;101505.44;20787656;28;20450;-72
2022/12/27 06:24:12;;;;;;;9.98;2.85;;;;;;;2.71;100.00;101497.69;20773344;28;20541;-74
2022/12/27 06:34:13;;;;;;;10.50;2.97;;;;;;;2.65;100.00;101509.53;20704811;28;20503;-73
2022/12/27 06:44:15;;;;;;;12.02;3.40;;;;;;;2.57;100.00;101507.56;20685601;28;20058;-72
2022/12/27 06:54:16;;;;;;;12.95;3.47;;;;;;;2.44;100.00;101540.66;20694473;28;20058;-73
2022/12/27 07:04:17;;;;;;;18.90;4.13;;;;;;;2.36;100.00;101565.38;20732325;28;20064;-73
2022/12/27 07:14:19;;;;;;;13.52;5.55;;;;;;;2.23;100.00;101570.09;20775389;28;20050;-74
2022/12/27 07:24:20;;;;;;;13.50;5.07;;;;;;;2.20;100.00;101582.88;20781012;28;20042;-76
2022/12/27 07:34:21;;;;;;;9.77;4.22;;;;;;;2.22;100.00;101576.09;20753890;28;20052;-74
2022/12/27 07:44:22;;;;;;;9.00;3.58;;;;;;;2.30;100.00;101584.13;20716350;28;20050;-74
2022/12/27 07:54:24;;;;;;;7.85;3.65;;;;;;;2.47;100.00;101582.16;20728976;28;20077;-74
2022/12/27 08:04:25;;;;;;;11.43;5.75;;;;;;;2.63;100.00;101587.03;20770520;28;20045;-75
2022/12/27 08:14:26;;;;;;;11.90;4.38;;;;;;;2.85;100.00;101601.63;20807789;23;20046;-70
2022/12/27 08:24:28;;;;;;;11.60;4.40;;;;;;;3.02;100.00;101607.38;20743190;28;20127;-71
2022/12/27 08:34:29;;;;;;;11.50;4.05;;;;;;;3.22;100.00;101608.94;20741775;28;20045;-67
2022/12/27 08:44:30;;;;;;;13.50;3.13;;;;;;;3.44;100.00;101618.25;20723194;28;20053;-67
2022/12/27 08:54:32;;;;;;;10.70;3.40;;;;;;;3.59;100.00;101631.75;20707882;28;20080;-67
2022/12/27 09:04:33;;;;;;;11.00;3.58;;;;;;;3.72;100.00;101626.94;20703921;28;20608;-66
2022/12/27 09:14:34;;;;;;;12.05;4.10;;;;;;;3.90;100.00;101629.22;20702357;28;20077;-67
2022/12/27 09:24:35;;;;;;;9.50;2.83;;;;;;;4.13;100.00;101630.81;20703310;28;20050;-67
2022/12/27 09:34:37;;;;;;;9.45;3.47;;;;;;;4.20;100.00;101643.13;20703569;28;20068;-68
2022/12/27 09:44:38;;;;;;;9.07;3.28;;;;;;;4.30;100.00;101644.28;20701213;28;20054;-67
2022/12/27 09:54:39;;;;;;;7.65;3.30;;;;;;;4.48;100.00;101634.44;20699613;28;20542;-67
2022/12/27 10:04:41;;;;;;;7.95;2.38;;;;;;;4.53;100.00;101637.16;20700062;28;20103;-67
2022/12/27 10:15:02;;;;;;;10.80;2.72;;;;;;;4.82;100.00;101619.81;20696606;28;20104;-68
2022/12/27 10:25:03;;;;;;;8.20;3.00;;;;;;;4.99;100.00;101621.16;20697678;28;20243;-67
2022/12/27 10:35:04;;;;;;;7.55;2.20;;;;;;;5.23;100.00;101607.94;20699305;28;20050;-67
2022/12/27 10:45:06;;;;;;;7.70;2.60;;;;;;;5.46;100.00;101599.81;20696804;28;20054;-67
2022/12/27 10:55:07;;;;;;;7.93;3.42;;;;;;;5.76;100.00;101591.91;20696281;28;20054;-68
2022/12/27 11:05:08;;;;;;;8.90;2.58;;;;;;;6.02;100.00;101597.69;20697349;28;20049;-67
2022/12/27 11:15:10;;;;;;;7.70;1.95;;;;;;;6.04;100.00;101603.84;20699333;28;20418;-67
2022/12/27 11:25:11;;;;;;;5.63;1.80;;;;;;;5.88;100.00;101598.22;20698343;28;20054;-67
2022/12/27 11:35:13;;;;;;;5.10;2.00;;;;;;;6.12;100.00;101584.06;20652858;28;20046;-67
2022/12/27 11:45:15;;;;;;;7.97;2.35;;;;;;;6.27;100.00;101588.69;20699930;28;20113;-68
2022/12/27 11:55:16;;;;;;;4.93;1.83;;;;;;;6.15;100.00;101584.13;20694236;28;20050;-67
2022/12/27 12:05:17;;;;;;;7.03;1.90;;;;;;;6.26;100.00;101571.34;20692566;28;20070;-67
2022/12/27 12:15:19;;;;;;;10.75;2.17;;;;;;;6.47;100.00;101566.59;20713520;28;20328;-67
2022/12/27 12:25:20;;;;;;;7.45;1.88;;;;;;;6.68;100.00;101568.72;20705006;28;20054;-67
2022/12/27 12:35:21;;;;;;;6.93;1.58;;;;;;;6.68;100.00;101550.50;20706266;28;20403;-67
2022/12/27 12:45:22;;;;;;;5.25;1.55;;;;;;;6.87;100.00;101557.78;20704624;28;20097;-67
2022/12/27 12:55:24;;;;;;;9.95;1.92;;;;;;;6.85;100.00;101556.00;20705681;28;20108;-67
2022/12/27 13:05:25;;;;;;;11.20;3.25;;;;;;;6.72;100.00;101547.09;20698559;28;20269;-69
2022/12/27 13:15:26;;;;;;;9.40;2.40;;;;;;;6.82;100.00;101542.94;20723629;28;20081;-67
2022/12/27 13:25:28;;;;;;;6.07;2.15;;;;;;;6.72;100.00;101531.50;20725145;28;20350;-67
2022/12/27 13:35:29;;;;;;;11.10;2.97;;;;;;;6.77;100.00;101526.38;20720836;28;20049;-67
2022/12/27 13:45:30;;;;;;;6.45;1.90;;;;;;;6.71;100.00;101527.16;20728333;28;20053;-67
2022/12/27 13:55:32;;;;;;;8.73;2.65;;;;;;;6.61;100.00;101520.00;20730796;28;20057;-67
2022/12/27 14:05:33;;;;;;;10.50;2.22;;;;;;;6.49;100.00;101520.66;20725666;28;20065;-68
2022/12/27 14:15:34;;;;;;;10.40;2.58;;;;;;;6.37;100.00;101523.91;20725297;28;20058;-68
2022/12/27 14:25:36;;;;;;;10.02;2.58;;;;;;;6.16;100.00;101520.88;20725205;28;20233;-67
2022/12/27 14:35:37;;;;;;;10.05;2.38;;;;;;;6.09;100.00;101508.59;20723772;28;20415;-66
2022/12/27 14:45:38;;;;;;;8.23;3.13;;;;;;;5.92;100.00;101503.03;20711928;28;20042;-69
2022/12/27 14:55:39;;;;;;;11.45;4.55;;;;;;;5.77;100.00;101498.38;20735326;28;20466;-67
2022/12/27 15:05:41;;;;;;;26.48;10.48;;;;;;;5.63;100.00;101504.97;20720625;28;20514;-69
2022/12/27 15:15:42;;;;;;;14.93;7.00;;;;;;;5.48;100.00;101494.25;20722876;28;20534;-69
2022/12/27 15:25:44;;;;;;;13.23;6.85;;;;;;;5.32;100.00;101488.72;20719567;28;20046;-70
2022/12/27 15:35:45;;;;;;;10.77;4.95;;;;;;;5.12;100.00;101506.41;20709936;28;20053;-68
2022/12/27 15:45:46;;;;;;;15.25;6.40;;;;;;;4.95;100.00;101509.44;20713544;28;20053;-68
2022/12/27 15:55:48;;;;;;;14.15;6.90;;;;;;;4.58;100.00;101506.75;20723940;28;20054;-68
2022/12/27 16:05:51;;;;;;;21.88;11.07;;;;;;;4.34;100.00;101501.81;20735732;28;20046;-69
2022/12/27 16:15:52;;;;;;;26.27;12.95;;;;;;;4.18;100.00;101494.44;20734290;28;20050;-68
2022/12/27 16:25:54;;;;;;;34.95;16.42;;;;;;;4.10;100.00;101502.00;20731632;28;20057;-69
2022/12/27 16:35:55;;;;;;;23.58;12.85;;;;;;;3.93;100.00;101497.16;20732997;28;20505;-68
2022/12/27 16:45:57;;;;;;;27.98;13.32;;;;;;;3.84;100.00;101472.78;20733352;28;20057;-68
2022/12/27 16:55:58;;;;;;;29.45;14.23;;;;;;;3.80;100.00;101460.56;20732003;28;20042;-68
2022/12/27 17:06:00;;;;;;;19.98;9.73;;;;;;;3.72;100.00;101475.00;20730014;28;20042;-68
2022/12/27 17:16:21;;;;;;;26.60;16.55;;;;;;;3.53;100.00;101467.50;20727467;28;20348;-68
2022/12/27 17:26:22;;;;;;;27.15;15.38;;;;;;;3.31;100.00;101461.69;20729776;28;20415;-68
2022/12/27 17:36:24;;;;;;;23.85;11.60;;;;;;;3.11;100.00;101462.75;20728273;28;20049;-68
2022/12/27 17:46:25;;;;;;;21.10;11.02;;;;;;;2.93;100.00;101454.44;20727630;28;20054;-68
2022/12/27 18:06:47;;;;;;;20.85;12.18;;;;;;;2.52;100.00;101436.72;20722110;28;20057;-68
2022/12/27 18:16:48;;;;;;;20.88;11.00;;;;;;;2.32;100.00;101422.25;20725521;28;20042;-68
2022/12/27 18:26:49;;;;;;;15.35;6.35;;;;;;;2.22;100.00;101410.72;20724038;28;20050;-68
2022/12/27 18:36:50;;;;;;;20.42;11.75;;;;;;;2.05;100.00;101417.00;20723174;28;20092;-68
2022/12/27 18:46:52;;;;;;;34.75;18.50;;;;;;;2.04;100.00;101405.78;20722699;28;20550;-67
2022/12/27 18:56:53;;;;;;;52.40;28.20;;;;;;;1.87;100.00;101390.53;20722798;28;20057;-69
2022/12/27 19:06:54;;;;;;;55.40;29.17;;;;;;;2.23;100.00;101378.00;20720749;28;20442;-68
2022/12/27 19:16:55;;;;;;;49.10;25.60;;;;;;;1.79;100.00;101378.22;20727401;28;20056;-67
2022/12/27 19:26:59;;;;;;;40.10;23.27;;;;;;;1.71;100.00;101364.16;20701749;28;20050;-69
2022/12/27 19:37:00;;;;;;;27.63;16.02;;;;;;;1.58;100.00;101354.22;20717925;28;20080;-68
2022/12/27 19:47:02;;;;;;;35.55;18.92;;;;;;;1.56;100.00;101357.59;20719484;28;20119;-69
2022/12/27 19:57:03;;;;;;;34.45;19.38;;;;;;;1.55;100.00;101346.38;20716579;28;20050;-70
2022/12/27 20:07:04;;;;;;;37.08;20.80;;;;;;;1.38;100.00;101331.97;20717265;28;20457;-68
2022/12/27 20:17:06;;;;;;;40.58;23.08;;;;;;;1.28;100.00;101318.75;20717981;28;20060;-68
2022/12/27 20:27:07;;;;;;;44.50;24.98;;;;;;;1.28;100.00;101325.59;20717727;28;20053;-69
2022/12/27 20:37:09;;;;;;;43.35;23.92;;;;;;;1.20;100.00;101302.13;20718422;28;20460;-68
2022/12/27 20:47:10;;;;;;;34.30;20.02;;;;;;;1.23;100.00;101301.34;20723022;28;20108;-67
2022/12/27 20:57:12;;;;;;;37.03;20.10;;;;;;;1.20;100.00;101296.97;20725685;28;20084;-67
2022/12/27 21:07:13;;;;;;;35.03;17.27;;;;;;;1.16;100.00;101289.06;20705409;28;20054;-68
2022/12/27 21:17:15;;;;;;;28.92;16.33;;;;;;;1.15;100.00;101288.19;20697002;28;20058;-67
2022/12/27 21:27:16;;;;;;;29.02;17.30;;;;;;;1.11;100.00;101285.44;20696725;28;20050;-67
2022/12/27 21:37:18;;;;;;;33.22;18.00;;;;;;;1.06;100.00;101280.13;20695638;28;20128;-67
2022/12/27 21:47:19;;;;;;;32.20;18.38;;;;;;;1.07;100.00;101278.41;20696604;28;20486;-67
2022/12/27 21:57:20;;;;;;;36.58;17.90;;;;;;;1.53;100.00;101239.63;20696862;28;20045;-68
2022/12/27 22:07:22;;;;;;;29.73;15.88;;;;;;;2.12;100.00;101240.75;20691319;28;20519;-68
2022/12/27 22:17:23;;;;;;;31.15;17.05;;;;;;;2.34;100.00;101231.94;20696770;28;20417;-69
2022/12/27 22:27:24;;;;;;;32.17;17.70;;;;;;;2.50;100.00;101228.13;20690582;28;20050;-68
2022/12/27 22:37:25;;;;;;;32.35;16.75;;;;;;;2.39;100.00;101237.25;20689932;28;20050;-68
2022/12/27 22:47:27;;;;;;;36.60;19.38;;;;;;;2.44;100.00;101228.81;20690177;28;20092;-68
2022/12/27 22:57:28;;;;;;;33.33;18.45;;;;;;;2.41;100.00;101220.09;20687558;28;20853;-68
2022/12/27 23:07:30;;;;;;;34.33;18.52;;;;;;;2.31;100.00;101212.06;20693279;28;20049;-68
2022/12/27 23:17:51;;;;;;;34.40;18.67;;;;;;;2.35;100.00;101199.22;20660880;28;20085;-67
2022/12/27 23:27:53;;;;;;;36.20;19.70;;;;;;;2.31;100.00;101183.63;20693735;28;20073;-68
2022/12/27 23:37:54;;;;;;;37.63;19.60;;;;;;;2.31;100.00;101175.00;20692359;28;20050;-67
2022/12/27 23:47:55;;;;;;;35.60;19.98;;;;;;;2.30;100.00;101157.75;20693933;28;20058;-67
2022/12/27 23:57:57;;;;;;;39.33;19.42;;;;;;;2.43;100.00;101161.56;20693156;28;20059;-68
